Pigalopp — LG3587 — position and weather

sailwx.info

Track history (hours):
 
Tides and Currents Weather Stations Pressure Air Temp Water Temp Dewpoint Dewpoint Depression Visibility Wind Speed Wind Dir Waves Ship Positions

Pigalopp

Last reported at 2017-Jun-21 20:47 UTC. Time now 2017-Jun-24 03:45 UTC.
Position N 58°59' E 005°46'.

Length 13 m.

Type: Sailing vessel. MMSI: 257735890.

Date/timePositionNaut miles runAvg speedWind from/ knotsBaromVisibWave heightAir tempDewpointWater temp
2017-Jun-21 20:47N 58°59' E 005°46'0 0.0
2017-Jun-21 20:29N 58°59' E 005°46'0 0.0
2017-Jun-21 19:59N 58°59' E 005°46'0 0.0
2017-Jun-21 19:29N 58°59' E 005°46'0 0.0
2017-Jun-21 18:59N 58°59' E 005°46'0 0.0
2017-Jun-21 18:26N 58°59' E 005°46'0 0.0
2017-Jun-21 17:59N 58°59' E 005°46'0 0.0
2017-Jun-21 17:29N 58°59' E 005°46'0 0.0
2017-Jun-21 16:59N 58°59' E 005°46'0 0.0
2017-Jun-21 16:29N 58°59' E 005°46'0 0.0
2017-Jun-21 15:59N 58°59' E 005°46'0 0.0
2017-Jun-21 15:26N 58°59' E 005°46'0 0.0
2017-Jun-21 14:59N 58°59' E 005°46'0 0.0
2017-Jun-21 14:30N 58°59' E 005°46'0 0.0
2017-Jun-21 13:30N 58°59' E 005°46'0 0.0
2017-Jun-21 13:00N 58°59' E 005°46'0 0.0
2017-Jun-21 12:30N 58°59' E 005°46'1 2.8
2017-Jun-21 11:59N 58°59' E 005°49'0 0.0
2017-Jun-21 11:29N 58°59' E 005°49'0 0.0
2017-Jun-21 10:59N 58°59' E 005°49'0 0.0
2017-Jun-21 10:29N 58°59' E 005°49'0 0.0
2017-Jun-21 09:59N 58°59' E 005°49'0 0.0
2017-Jun-21 09:28N 58°59' E 005°49'1 2.2
2017-Jun-21 09:00N 58°59' E 005°47'2 4.7
2017-Jun-21 08:30N 59°01' E 005°43'2 3.9
2017-Jun-21 08:00N 58°59' E 005°43'1 3.0
2017-Jun-21 07:30N 58°59' E 005°46'1 1.5
2017-Jun-21 07:00N 58°59' E 005°45'1 0.0
2017-Jun-19 14:12N 58°59' E 005°44'  
Track history (hours):
 
Tides and Currents Weather Stations Pressure Air Temp Water Temp Dewpoint Dewpoint Depression Visibility Wind Speed Wind Dir Waves Ship Positions

Pigalopp

Last reported at 2017-Jun-21 20:47 UTC. Time now 2017-Jun-24 03:45 UTC.
Position N 58°59' E 005°46'.

Length 13 m.

Type: Sailing vessel. MMSI: 257735890.

Date/timePositionNaut miles runAvg speedWind from/ knotsBaromVisibWave heightAir tempDewpointWater temp
2017-Jun-21 20:47N 58°59' E 005°46'0 0.0
2017-Jun-21 20:29N 58°59' E 005°46'0 0.0
2017-Jun-21 19:59N 58°59' E 005°46'0 0.0
2017-Jun-21 19:29N 58°59' E 005°46'0 0.0
2017-Jun-21 18:59N 58°59' E 005°46'0 0.0
2017-Jun-21 18:26N 58°59' E 005°46'0 0.0
2017-Jun-21 17:59N 58°59' E 005°46'0 0.0
2017-Jun-21 17:29N 58°59' E 005°46'0 0.0
2017-Jun-21 16:59N 58°59' E 005°46'0 0.0
2017-Jun-21 16:29N 58°59' E 005°46'0 0.0
2017-Jun-21 15:59N 58°59' E 005°46'0 0.0
2017-Jun-21 15:26N 58°59' E 005°46'0 0.0
2017-Jun-21 14:59N 58°59' E 005°46'0 0.0
2017-Jun-21 14:30N 58°59' E 005°46'0 0.0
2017-Jun-21 13:30N 58°59' E 005°46'0 0.0
2017-Jun-21 13:00N 58°59' E 005°46'0 0.0
2017-Jun-21 12:30N 58°59' E 005°46'1 2.8
2017-Jun-21 11:59N 58°59' E 005°49'0 0.0
2017-Jun-21 11:29N 58°59' E 005°49'0 0.0
2017-Jun-21 10:59N 58°59' E 005°49'0 0.0
2017-Jun-21 10:29N 58°59' E 005°49'0 0.0
2017-Jun-21 09:59N 58°59' E 005°49'0 0.0
2017-Jun-21 09:28N 58°59' E 005°49'1 2.2
2017-Jun-21 09:00N 58°59' E 005°47'2 4.7
2017-Jun-21 08:30N 59°01' E 005°43'2 3.9
2017-Jun-21 08:00N 58°59' E 005°43'1 3.0
2017-Jun-21 07:30N 58°59' E 005°46'1 1.5
2017-Jun-21 07:00N 58°59' E 005°45'1 0.0
2017-Jun-19 14:12N 58°59' E 005°44'  

Dump ship's entire track history